sensor_id;sensor_type;location;lat;lon;timestamp;pressure;altitude;pressure_sealevel;temperature;humidity
23229;BME280;11783;50.350;6.576;2022-10-16T00:01:53;95860.38;;;12.65;100.00
23229;BME280;11783;50.350;6.576;2022-10-16T00:04:18;95858.47;;;12.60;100.00
23229;BME280;11783;50.350;6.576;2022-10-16T00:06:44;95848.06;;;12.59;100.00
23229;BME280;11783;50.350;6.576;2022-10-16T00:09:09;95862.47;;;12.58;100.00
23229;BME280;11783;50.350;6.576;2022-10-16T00:11:36;95866.72;;;12.54;100.00
23229;BME280;11783;50.350;6.576;2022-10-16T00:14:04;95887.00;;;12.50;100.00
23229;BME280;11783;50.350;6.576;2022-10-16T00:16:30;95883.22;;;12.46;100.00
23229;BME280;11783;50.350;6.576;2022-10-16T00:18:56;95872.88;;;12.49;100.00
23229;BME280;11783;50.350;6.576;2022-10-16T00:21:27;95868.34;;;12.50;100.00
23229;BME280;11783;50.350;6.576;2022-10-16T00:23:58;95869.63;;;12.32;100.00
23229;BME280;11783;50.350;6.576;2022-10-16T00:26:27;95858.16;;;12.31;100.00
23229;BME280;11783;50.350;6.576;2022-10-16T00:28:53;95863.75;;;12.30;100.00
23229;BME280;11783;50.350;6.576;2022-10-16T00:31:20;95861.09;;;12.30;100.00
23229;BME280;11783;50.350;6.576;2022-10-16T00:33:46;95856.03;;;12.28;100.00
23229;BME280;11783;50.350;6.576;2022-10-16T00:36:13;95852.78;;;12.26;100.00
23229;BME280;11783;50.350;6.576;2022-10-16T00:38:39;95859.44;;;12.24;100.00
23229;BME280;11783;50.350;6.576;2022-10-16T00:41:06;95865.56;;;12.19;100.00
23229;BME280;11783;50.350;6.576;2022-10-16T00:43:44;95862.63;;;12.16;100.00
23229;BME280;11783;50.350;6.576;2022-10-16T00:46:15;95874.91;;;12.22;100.00
23229;BME280;11783;50.350;6.576;2022-10-16T00:48:43;95870.38;;;12.17;100.00
23229;BME280;11783;50.350;6.576;2022-10-16T00:51:10;95870.63;;;12.21;100.00
23229;BME280;11783;50.350;6.576;2022-10-16T00:53:36;95874.63;;;12.23;100.00
23229;BME280;11783;50.350;6.576;2022-10-16T00:56:02;95874.63;;;12.23;100.00
23229;BME280;11783;50.350;6.576;2022-10-16T00:58:27;95855.44;;;12.21;100.00
23229;BME280;11783;50.350;6.576;2022-10-16T01:00:53;95862.06;;;12.08;100.00
23229;BME280;11783;50.350;6.576;2022-10-16T01:03:27;95875.16;;;12.10;100.00
23229;BME280;11783;50.350;6.576;2022-10-16T01:08:48;95854.31;;;12.02;100.00
23229;BME280;11783;50.350;6.576;2022-10-16T01:13:55;95883.31;;;11.93;100.00
23229;BME280;11783;50.350;6.576;2022-10-16T01:16:44;95882.81;;;11.96;100.00
23229;BME280;11783;50.350;6.576;2022-10-16T01:19:19;95886.53;;;11.95;100.00
23229;BME280;11783;50.350;6.576;2022-10-16T01:21:46;95897.72;;;11.97;100.00
23229;BME280;11783;50.350;6.576;2022-10-16T01:24:27;95899.25;;;11.88;100.00
23229;BME280;11783;50.350;6.576;2022-10-16T01:35:30;95894.53;;;11.95;100.00
23229;BME280;11783;50.350;6.576;2022-10-16T01:38:14;95896.91;;;11.92;100.00
23229;BME280;11783;50.350;6.576;2022-10-16T01:40:45;95912.91;;;11.97;100.00
23229;BME280;11783;50.350;6.576;2022-10-16T01:43:14;95910.47;;;11.90;100.00
23229;BME280;11783;50.350;6.576;2022-10-16T01:45:41;95895.31;;;11.91;100.00
23229;BME280;11783;50.350;6.576;2022-10-16T01:48:07;95894.53;;;11.95;100.00
23229;BME280;11783;50.350;6.576;2022-10-16T01:50:37;95899.31;;;11.93;100.00
23229;BME280;11783;50.350;6.576;2022-10-16T01:53:05;95889.47;;;11.94;100.00
23229;BME280;11783;50.350;6.576;2022-10-16T01:55:34;95892.88;;;11.89;100.00
23229;BME280;11783;50.350;6.576;2022-10-16T01:58:03;95892.91;;;11.94;100.00
23229;BME280;11783;50.350;6.576;2022-10-16T02:00:30;95891.84;;;11.95;100.00
23229;BME280;11783;50.350;6.576;2022-10-16T02:02:57;95888.66;;;11.98;100.00
23229;BME280;11783;50.350;6.576;2022-10-16T02:05:28;95890.00;;;12.01;100.00
23229;BME280;11783;50.350;6.576;2022-10-16T02:07:55;95893.19;;;11.98;100.00
23229;BME280;11783;50.350;6.576;2022-10-16T02:10:22;95889.97;;;11.91;100.00
23229;BME280;11783;50.350;6.576;2022-10-16T02:12:56;95869.97;;;11.88;100.00
23229;BME280;11783;50.350;6.576;2022-10-16T02:15:23;95863.59;;;11.89;100.00
23229;BME280;11783;50.350;6.576;2022-10-16T02:17:49;95857.97;;;11.86;100.00
23229;BME280;11783;50.350;6.576;2022-10-16T02:20:14;95871.34;;;11.91;100.00
23229;BME280;11783;50.350;6.576;2022-10-16T02:22:43;95887.06;;;11.92;100.00
23229;BME280;11783;50.350;6.576;2022-10-16T02:25:28;95908.66;;;12.01;100.00
23229;BME280;11783;50.350;6.576;2022-10-16T02:28:05;95913.16;;;11.95;100.00
23229;BME280;11783;50.350;6.576;2022-10-16T02:30:39;95902.00;;;11.98;100.00
23229;BME280;11783;50.350;6.576;2022-10-16T02:33:09;95911.31;;;12.01;100.00
23229;BME280;11783;50.350;6.576;2022-10-16T02:35:36;95905.72;;;12.02;100.00
23229;BME280;11783;50.350;6.576;2022-10-16T02:38:02;95897.22;;;12.05;100.00
23229;BME280;11783;50.350;6.576;2022-10-16T02:40:28;95885.28;;;12.13;100.00
23229;BME280;11783;50.350;6.576;2022-10-16T02:42:54;95865.03;;;12.17;100.00
23229;BME280;11783;50.350;6.576;2022-10-16T02:45:21;95884.22;;;12.14;100.00
23229;BME280;11783;50.350;6.576;2022-10-16T02:47:46;95891.94;;;12.16;100.00
23229;BME280;11783;50.350;6.576;2022-10-16T02:50:12;95902.59;;;12.16;100.00
23229;BME280;11783;50.350;6.576;2022-10-16T02:52:37;95903.66;;;12.15;100.00
23229;BME280;11783;50.350;6.576;2022-10-16T02:55:03;95899.91;;;12.10;100.00
23229;BME280;11783;50.350;6.576;2022-10-16T02:57:28;95894.03;;;12.08;100.00
23229;BME280;11783;50.350;6.576;2022-10-16T02:59:53;95897.00;;;12.12;100.00
23229;BME280;11783;50.350;6.576;2022-10-16T03:02:19;95906.59;;;12.18;100.00
23229;BME280;11783;50.350;6.576;2022-10-16T03:04:44;95895.16;;;12.23;100.00
23229;BME280;11783;50.350;6.576;2022-10-16T03:07:09;95894.06;;;12.19;100.00
23229;BME280;11783;50.350;6.576;2022-10-16T03:09:35;95898.09;;;12.21;100.00
23229;BME280;11783;50.350;6.576;2022-10-16T03:12:00;95914.88;;;12.22;100.00
23229;BME280;11783;50.350;6.576;2022-10-16T03:14:25;95920.72;;;12.24;100.00
23229;BME280;11783;50.350;6.576;2022-10-16T03:16:51;95912.47;;;12.25;100.00
23229;BME280;11783;50.350;6.576;2022-10-16T03:19:17;95913.84;;;12.28;100.00
23229;BME280;11783;50.350;6.576;2022-10-16T03:21:42;95898.88;;;12.22;100.00
23229;BME280;11783;50.350;6.576;2022-10-16T03:24:08;95902.59;;;12.16;100.00
23229;BME280;11783;50.350;6.576;2022-10-16T03:26:33;95915.38;;;12.19;100.00
23229;BME280;11783;50.350;6.576;2022-10-16T03:28:58;95917.00;;;12.25;100.00
23229;BME280;11783;50.350;6.576;2022-10-16T03:31:24;95905.00;;;12.22;100.00
23229;BME280;11783;50.350;6.576;2022-10-16T03:33:49;95896.75;;;12.19;100.00
23229;BME280;11783;50.350;6.576;2022-10-16T03:36:14;95907.94;;;12.26;100.00
23229;BME280;11783;50.350;6.576;2022-10-16T03:38:39;95905.00;;;12.22;100.00
23229;BME280;11783;50.350;6.576;2022-10-16T03:41:05;95908.00;;;12.31;100.00
23229;BME280;11783;50.350;6.576;2022-10-16T03:43:32;95923.97;;;12.31;100.00
23229;BME280;11783;50.350;6.576;2022-10-16T03:45:58;95914.91;;;12.32;100.00
23229;BME280;11783;50.350;6.576;2022-10-16T03:48:23;95907.16;;;12.25;100.00
23229;BME280;11783;50.350;6.576;2022-10-16T03:50:48;95913.56;;;12.29;100.00
23229;BME280;11783;50.350;6.576;2022-10-16T03:53:14;95910.63;;;12.26;100.00
23229;BME280;11783;50.350;6.576;2022-10-16T03:55:43;95898.88;;;12.22;100.00
23229;BME280;11783;50.350;6.576;2022-10-16T03:58:09;95893.00;;;12.15;100.00
23229;BME280;11783;50.350;6.576;2022-10-16T04:00:35;95897.28;;;12.21;100.00
23229;BME280;11783;50.350;6.576;2022-10-16T04:03:01;95904.47;;;12.25;100.00
23229;BME280;11783;50.350;6.576;2022-10-16T04:05:26;95905.28;;;12.26;100.00
23229;BME280;11783;50.350;6.576;2022-10-16T04:07:52;95906.13;;;12.31;100.00
23229;BME280;11783;50.350;6.576;2022-10-16T04:10:17;95911.44;;;12.31;100.00
23229;BME280;11783;50.350;6.576;2022-10-16T04:12:43;95910.41;;;12.37;100.00
23229;BME280;11783;50.350;6.576;2022-10-16T04:15:08;95923.97;;;12.36;100.00
23229;BME280;11783;50.350;6.576;2022-10-16T04:17:35;95920.25;;;12.42;100.00
23229;BME280;11783;50.350;6.576;2022-10-16T04:20:00;95924.31;;;12.50;100.00
23229;BME280;11783;50.350;6.576;2022-10-16T04:22:25;95927.50;;;12.52;100.00
23229;BME280;11783;50.350;6.576;2022-10-16T04:24:50;95928.31;;;12.47;100.00
23229;BME280;11783;50.350;6.576;2022-10-16T04:27:16;95930.44;;;12.50;100.00
23229;BME280;11783;50.350;6.576;2022-10-16T04:29:41;95927.78;;;12.50;100.00
23229;BME280;11783;50.350;6.576;2022-10-16T04:32:08;95940.31;;;12.55;100.00
23229;BME280;11783;50.350;6.576;2022-10-16T04:34:33;95933.91;;;12.56;100.00
23229;BME280;11783;50.350;6.576;2022-10-16T04:36:59;95939.50;;;12.54;100.00
23229;BME280;11783;50.350;6.576;2022-10-16T04:39:24;95950.72;;;12.56;100.00
23229;BME280;11783;50.350;6.576;2022-10-16T04:41:50;95958.97;;;12.60;100.00
23229;BME280;11783;50.350;6.576;2022-10-16T04:44:15;95949.09;;;12.60;100.00
23229;BME280;11783;50.350;6.576;2022-10-16T04:46:40;95939.78;;;12.63;100.00
23229;BME280;11783;50.350;6.576;2022-10-16T04:49:06;95944.84;;;12.54;100.00
23229;BME280;11783;50.350;6.576;2022-10-16T04:51:31;95941.09;;;12.50;100.00
23229;BME280;11783;50.350;6.576;2022-10-16T04:53:56;95942.16;;;12.49;100.00
23229;BME280;11783;50.350;6.576;2022-10-16T04:56:22;95954.69;;;12.54;100.00
23229;BME280;11783;50.350;6.576;2022-10-16T04:58:48;95948.56;;;12.58;100.00
23229;BME280;11783;50.350;6.576;2022-10-16T05:01:13;95948.03;;;12.61;100.00
23229;BME280;11783;50.350;6.576;2022-10-16T05:03:38;95955.53;;;12.64;100.00
23229;BME280;11783;50.350;6.576;2022-10-16T05:06:05;95966.16;;;12.54;100.00
23229;BME280;11783;50.350;6.576;2022-10-16T05:08:31;95958.72;;;12.61;100.00
23229;BME280;11783;50.350;6.576;2022-10-16T05:10:56;95950.97;;;12.60;100.00
23229;BME280;11783;50.350;6.576;2022-10-16T05:13:21;95953.38;;;12.61;100.00
23229;BME280;11783;50.350;6.576;2022-10-16T05:15:48;95962.97;;;12.62;100.00
23229;BME280;11783;50.350;6.576;2022-10-16T05:18:14;95967.50;;;12.57;100.00
23229;BME280;11783;50.350;6.576;2022-10-16T05:20:39;95972.03;;;12.51;100.00
23229;BME280;11783;50.350;6.576;2022-10-16T05:23:04;95977.88;;;12.53;100.00
23229;BME280;11783;50.350;6.576;2022-10-16T05:25:30;95965.63;;;12.52;100.00
23229;BME280;11783;50.350;6.576;2022-10-16T05:27:55;95970.97;;;12.57;100.00
23229;BME280;11783;50.350;6.576;2022-10-16T05:30:20;95969.09;;;12.53;100.00
23229;BME280;11783;50.350;6.576;2022-10-16T05:32:50;95964.03;;;12.51;100.00
23229;BME280;11783;50.350;6.576;2022-10-16T05:35:17;95968.81;;;12.49;100.00
23229;BME280;11783;50.350;6.576;2022-10-16T05:37:42;95973.03;;;12.45;100.00
23229;BME280;11783;50.350;6.576;2022-10-16T05:40:09;95969.34;;;12.46;100.00
23229;BME280;11783;50.350;6.576;2022-10-16T05:42:34;95984.56;;;12.51;100.00
23229;BME280;11783;50.350;6.576;2022-10-16T05:45:00;95991.16;;;12.38;100.00
23229;BME280;11783;50.350;6.576;2022-10-16T05:47:25;95990.59;;;12.36;100.00
23229;BME280;11783;50.350;6.576;2022-10-16T05:49:51;95999.16;;;12.38;100.00
23229;BME280;11783;50.350;6.576;2022-10-16T05:52:16;96006.09;;;12.44;100.00
23229;BME280;11783;50.350;6.576;2022-10-16T05:54:41;96004.00;;;12.51;100.00
23229;BME280;11783;50.350;6.576;2022-10-16T05:57:06;96014.41;;;12.48;100.00
23229;BME280;11783;50.350;6.576;2022-10-16T05:59:32;96004.47;;;12.38;100.00
23229;BME280;11783;50.350;6.576;2022-10-16T06:01:57;96008.72;;;12.29;100.00
23229;BME280;11783;50.350;6.576;2022-10-16T06:04:23;96019.91;;;12.36;100.00
23229;BME280;11783;50.350;6.576;2022-10-16T06:06:48;96020.53;;;12.48;100.00
23229;BME280;11783;50.350;6.576;2022-10-16T06:09:13;96037.78;;;12.35;100.00
23229;BME280;11783;50.350;6.576;2022-10-16T06:11:38;96026.34;;;12.45;100.00
23229;BME280;11783;50.350;6.576;2022-10-16T06:14:04;96026.88;;;12.42;100.00
23229;BME280;11783;50.350;6.576;2022-10-16T06:16:33;96029.53;;;12.37;100.00
23229;BME280;11783;50.350;6.576;2022-10-16T06:18:58;96027.13;;;12.35;100.00
23229;BME280;11783;50.350;6.576;2022-10-16T06:21:28;96030.84;;;12.34;100.00
23229;BME280;11783;50.350;6.576;2022-10-16T06:23:56;96025.78;;;12.38;100.00
23229;BME280;11783;50.350;6.576;2022-10-16T06:26:23;96028.22;;;12.44;100.00
23229;BME280;11783;50.350;6.576;2022-10-16T06:28:49;96034.41;;;12.50;100.00
23229;BME280;11783;50.350;6.576;2022-10-16T06:31:15;96035.72;;;12.53;100.00
23229;BME280;11783;50.350;6.576;2022-10-16T06:33:41;96040.53;;;12.51;100.00
23229;BME280;11783;50.350;6.576;2022-10-16T06:36:08;96037.84;;;12.51;100.00
23229;BME280;11783;50.350;6.576;2022-10-16T06:38:34;96043.47;;;12.54;100.00
23229;BME280;11783;50.350;6.576;2022-10-16T06:41:00;96058.94;;;12.62;100.00
23229;BME280;11783;50.350;6.576;2022-10-16T06:43:26;96057.63;;;12.60;100.00
23229;BME280;11783;50.350;6.576;2022-10-16T06:45:55;96056.56;;;12.61;100.00
23229;BME280;11783;50.350;6.576;2022-10-16T06:48:21;96066.47;;;12.65;100.00
23229;BME280;11783;50.350;6.576;2022-10-16T06:51:04;96081.06;;;12.58;100.00
23229;BME280;11783;50.350;6.576;2022-10-16T06:53:32;96089.13;;;12.68;100.00
23229;BME280;11783;50.350;6.576;2022-10-16T06:55:57;96089.66;;;12.65;100.00
23229;BME280;11783;50.350;6.576;2022-10-16T06:58:23;96097.38;;;12.66;100.00
23229;BME280;11783;50.350;6.576;2022-10-16T07:00:48;96103.78;;;12.65;100.00
23229;BME280;11783;50.350;6.576;2022-10-16T07:03:14;96099.28;;;12.71;100.00
23229;BME280;11783;50.350;6.576;2022-10-16T07:05:41;96110.22;;;12.74;100.00
23229;BME280;11783;50.350;6.576;2022-10-16T07:08:06;96108.88;;;12.72;100.00
23229;BME280;11783;50.350;6.576;2022-10-16T07:10:32;96113.69;;;12.80;100.00
23229;BME280;11783;50.350;6.576;2022-10-16T07:12:58;96122.50;;;12.76;100.00
23229;BME280;11783;50.350;6.576;2022-10-16T07:15:24;96136.09;;;12.79;100.00
23229;BME280;11783;50.350;6.576;2022-10-16T07:17:50;96132.91;;;12.77;100.00
23229;BME280;11783;50.350;6.576;2022-10-16T07:20:15;96134.31;;;12.90;100.00
23229;BME280;11783;50.350;6.576;2022-10-16T07:22:40;96149.50;;;12.89;100.00
23229;BME280;11783;50.350;6.576;2022-10-16T07:25:06;96156.44;;;12.90;100.00
23229;BME280;11783;50.350;6.576;2022-10-16T07:27:31;96157.78;;;12.93;100.00
23229;BME280;11783;50.350;6.576;2022-10-16T07:29:57;96151.38;;;12.94;100.00
23229;BME280;11783;50.350;6.576;2022-10-16T07:32:22;96162.59;;;12.96;100.00
23229;BME280;11783;50.350;6.576;2022-10-16T07:34:48;96162.31;;;12.92;100.00
23229;BME280;11783;50.350;6.576;2022-10-16T07:37:13;96157.84;;;13.03;100.00
23229;BME280;11783;50.350;6.576;2022-10-16T07:39:39;96152.00;;;13.11;100.00
23229;BME280;11783;50.350;6.576;2022-10-16T07:42:04;96177.09;;;13.10;100.00
23229;BME280;11783;50.350;6.576;2022-10-16T07:44:29;96171.75;;;13.10;100.00
23229;BME280;11783;50.350;6.576;2022-10-16T07:46:55;96176.03;;;13.16;100.00
23229;BME280;11783;50.350;6.576;2022-10-16T07:49:20;96174.25;;;13.22;100.00
23229;BME280;11783;50.350;6.576;2022-10-16T07:51:45;96178.94;;;13.10;100.00
23229;BME280;11783;50.350;6.576;2022-10-16T07:54:11;96184.53;;;13.08;100.00
23229;BME280;11783;50.350;6.576;2022-10-16T07:56:36;96189.91;;;13.13;100.00
23229;BME280;11783;50.350;6.576;2022-10-16T07:59:01;96199.88;;;13.23;100.00
23229;BME280;11783;50.350;6.576;2022-10-16T08:01:27;96204.41;;;13.27;100.00
23229;BME280;11783;50.350;6.576;2022-10-16T08:03:52;96216.72;;;13.39;100.00
23229;BME280;11783;50.350;6.576;2022-10-16T08:06:20;96218.63;;;13.43;100.00
23229;BME280;11783;50.350;6.576;2022-10-16T08:08:45;96215.97;;;13.43;100.00
23229;BME280;11783;50.350;6.576;2022-10-16T08:11:11;96215.97;;;13.43;100.00
23229;BME280;11783;50.350;6.576;2022-10-16T08:13:36;96214.66;;;13.51;100.00
23229;BME280;11783;50.350;6.576;2022-10-16T08:16:02;96220.44;;;13.38;100.00
23229;BME280;11783;50.350;6.576;2022-10-16T08:18:33;96231.19;;;13.48;100.00
23229;BME280;11783;50.350;6.576;2022-10-16T08:20:59;96234.94;;;13.47;100.00
23229;BME280;11783;50.350;6.576;2022-10-16T08:23:26;96229.31;;;13.48;100.00
23229;BME280;11783;50.350;6.576;2022-10-16T08:25:52;96239.75;;;13.55;100.00
23229;BME280;11783;50.350;6.576;2022-10-16T08:28:19;96244.28;;;13.54;100.00
23229;BME280;11783;50.350;6.576;2022-10-16T08:30:44;96247.25;;;13.58;100.00
23229;BME280;11783;50.350;6.576;2022-10-16T08:33:09;96243.25;;;13.60;100.00
23229;BME280;11783;50.350;6.576;2022-10-16T08:35:34;96253.69;;;13.62;100.00
23229;BME280;11783;50.350;6.576;2022-10-16T08:38:02;96269.19;;;13.70;100.00
23229;BME280;11783;50.350;6.576;2022-10-16T08:40:29;96267.03;;;13.67;100.00
23229;BME280;11783;50.350;6.576;2022-10-16T08:48:50;96261.50;;;13.84;100.00
23229;BME280;11783;50.350;6.576;2022-10-16T08:51:24;96254.81;;;13.86;100.00
23229;BME280;11783;50.350;6.576;2022-10-16T08:54:03;96254.03;;;13.91;100.00
23229;BME280;11783;50.350;6.576;2022-10-16T08:56:28;96252.47;;;13.95;100.00
23229;BME280;11783;50.350;6.576;2022-10-16T08:58:54;96247.88;;;13.85;100.00
23229;BME280;11783;50.350;6.576;2022-10-16T09:01:21;96257.81;;;13.95;100.00
23229;BME280;11783;50.350;6.576;2022-10-16T09:03:54;96257.56;;;14.12;100.00
23229;BME280;11783;50.350;6.576;2022-10-16T09:06:43;96267.47;;;14.16;100.00
23229;BME280;11783;50.350;6.576;2022-10-16T09:12:02;96262.66;;;14.23;100.00
23229;BME280;11783;50.350;6.576;2022-10-16T09:20:20;96271.22;;;14.15;100.00
23229;BME280;11783;50.350;6.576;2022-10-16T09:22:55;96266.94;;;14.14;100.00
23229;BME280;11783;50.350;6.576;2022-10-16T09:25:25;96269.09;;;14.22;100.00
23229;BME280;11783;50.350;6.576;2022-10-16T09:27:52;96273.38;;;14.39;100.00
23229;BME280;11783;50.350;6.576;2022-10-16T09:30:20;96278.47;;;14.40;100.00
23229;BME280;11783;50.350;6.576;2022-10-16T09:32:49;96271.31;;;14.51;100.00
23229;BME280;11783;50.350;6.576;2022-10-16T09:35:33;96276.38;;;14.58;100.00
23229;BME280;11783;50.350;6.576;2022-10-16T09:38:01;96272.88;;;14.62;100.00
23229;BME280;11783;50.350;6.576;2022-10-16T09:40:33;96281.44;;;14.64;100.00
23229;BME280;11783;50.350;6.576;2022-10-16T09:45:53;96280.91;;;14.67;100.00
23229;BME280;11783;50.350;6.576;2022-10-16T09:48:19;96281.19;;;14.71;100.00
23229;BME280;11783;50.350;6.576;2022-10-16T09:50:55;96272.09;;;14.77;100.00
23229;BME280;11783;50.350;6.576;2022-10-16T09:53:21;96264.59;;;14.84;100.00
23229;BME280;11783;50.350;6.576;2022-10-16T09:55:52;96277.19;;;14.89;100.00
23229;BME280;11783;50.350;6.576;2022-10-16T09:58:21;96265.13;;;14.96;100.00
23229;BME280;11783;50.350;6.576;2022-10-16T10:00:52;96272.59;;;14.99;100.00
23229;BME280;11783;50.350;6.576;2022-10-16T10:03:35;96262.44;;;15.06;100.00
23229;BME280;11783;50.350;6.576;2022-10-16T10:06:24;96263.47;;;15.21;100.00
23229;BME280;11783;50.350;6.576;2022-10-16T10:11:53;96268.50;;;15.48;100.00
23229;BME280;11783;50.350;6.576;2022-10-16T10:14:26;96270.38;;;15.62;100.00
23229;BME280;11783;50.350;6.576;2022-10-16T10:17:07;96280.19;;;15.82;99.18
23229;BME280;11783;50.350;6.576;2022-10-16T10:19:44;96284.97;;;15.90;95.52
23229;BME280;11783;50.350;6.576;2022-10-16T10:22:26;96278.47;;;16.07;96.70
23229;BME280;11783;50.350;6.576;2022-10-16T10:33:27;96294.06;;;15.99;94.93
23229;BME280;11783;50.350;6.576;2022-10-16T10:38:50;96283.03;;;16.06;96.58
23229;BME280;11783;50.350;6.576;2022-10-16T10:46:41;96291.56;;;16.13;98.96
23229;BME280;11783;50.350;6.576;2022-10-16T10:49:30;96291.03;;;16.11;94.97
23229;BME280;11783;50.350;6.576;2022-10-16T10:52:19;96286.44;;;16.17;93.67
23229;BME280;11783;50.350;6.576;2022-10-16T10:55:00;96296.91;;;16.13;94.29
23229;BME280;11783;50.350;6.576;2022-10-16T10:57:56;96298.47;;;16.24;95.18
23229;BME280;11783;50.350;6.576;2022-10-16T11:03:42;96297.59;;;16.34;94.05
23229;BME280;11783;50.350;6.576;2022-10-16T11:06:18;96295.16;;;16.43;95.63
23229;BME280;11783;50.350;6.576;2022-10-16T11:11:41;96293.22;;;16.48;93.54
23229;BME280;11783;50.350;6.576;2022-10-16T11:14:14;96299.16;;;16.45;95.27
23229;BME280;11783;50.350;6.576;2022-10-16T11:16:51;96304.81;;;16.44;95.55
23229;BME280;11783;50.350;6.576;2022-10-16T11:22:42;96299.09;;;16.55;93.57
23229;BME280;11783;50.350;6.576;2022-10-16T11:24:53;96309.56;;;16.57;95.74
23229;BME280;11783;50.350;6.576;2022-10-16T11:27:25;96308.63;;;16.77;92.90
23229;BME280;11783;50.350;6.576;2022-10-16T11:29:57;96315.78;;;16.86;91.36
23229;BME280;11783;50.350;6.576;2022-10-16T11:32:37;96316.03;;;16.90;87.51
23229;BME280;11783;50.350;6.576;2022-10-16T11:35:12;96327.03;;;16.93;91.84
23229;BME280;11783;50.350;6.576;2022-10-16T11:37:43;96332.47;;;16.83;89.61
23229;BME280;11783;50.350;6.576;2022-10-16T11:40:21;96317.97;;;16.84;92.17
23229;BME280;11783;50.350;6.576;2022-10-16T11:42:58;96323.38;;;16.79;93.62
23229;BME280;11783;50.350;6.576;2022-10-16T11:45:38;96315.91;;;16.71;93.04
23229;BME280;11783;50.350;6.576;2022-10-16T11:48:18;96313.19;;;16.76;92.71
23229;BME280;11783;50.350;6.576;2022-10-16T11:50:53;96315.09;;;16.76;91.61
23229;BME280;11783;50.350;6.576;2022-10-16T11:53:34;96309.19;;;16.74;89.87
23229;BME280;11783;50.350;6.576;2022-10-16T11:56:05;96292.72;;;16.85;91.97
23229;BME280;11783;50.350;6.576;2022-10-16T12:03:42;96295.75;;;17.08;92.99
23229;BME280;11783;50.350;6.576;2022-10-16T12:06:25;96296.25;;;17.10;93.50
23229;BME280;11783;50.350;6.576;2022-10-16T12:08:53;96295.72;;;17.13;94.85
23229;BME280;11783;50.350;6.576;2022-10-16T12:13:48;96302.19;;;17.12;93.89
23229;BME280;11783;50.350;6.576;2022-10-16T12:18:44;96316.56;;;16.92;94.11
23229;BME280;11783;50.350;6.576;2022-10-16T12:21:11;96317.31;;;16.98;95.88
23229;BME280;11783;50.350;6.576;2022-10-16T12:23:50;96318.53;;;16.81;94.08
23229;BME280;11783;50.350;6.576;2022-10-16T12:26:31;96309.72;;;16.71;95.80
23229;BME280;11783;50.350;6.576;2022-10-16T12:29:12;96315.72;;;16.52;96.57
23229;BME280;11783;50.350;6.576;2022-10-16T12:31:44;96315.53;;;16.44;98.02
23229;BME280;11783;50.350;6.576;2022-10-16T12:34:23;96312.56;;;16.45;98.11
23229;BME280;11783;50.350;6.576;2022-10-16T12:36:51;96308.06;;;16.35;99.06
23229;BME280;11783;50.350;6.576;2022-10-16T12:39:22;96310.72;;;16.41;99.46
23229;BME280;11783;50.350;6.576;2022-10-16T12:41:48;96307.75;;;16.42;99.95
23229;BME280;11783;50.350;6.576;2022-10-16T12:44:25;96304.81;;;16.44;100.00
23229;BME280;11783;50.350;6.576;2022-10-16T12:46:53;96306.88;;;16.52;100.00
23229;BME280;11783;50.350;6.576;2022-10-16T12:51:52;96306.88;;;16.52;100.00
23229;BME280;11783;50.350;6.576;2022-10-16T12:57:24;96297.28;;;16.46;100.00
23229;BME280;11783;50.350;6.576;2022-10-16T12:59:59;96297.22;;;16.56;99.79
23229;BME280;11783;50.350;6.576;2022-10-16T13:08:27;96299.91;;;16.56;100.00
23229;BME280;11783;50.350;6.576;2022-10-16T13:11:05;96299.06;;;16.60;99.29
23229;BME280;11783;50.350;6.576;2022-10-16T13:27:35;96303.13;;;16.53;100.00
23229;BME280;11783;50.350;6.576;2022-10-16T13:30:18;96310.16;;;16.44;100.00
23229;BME280;11783;50.350;6.576;2022-10-16T13:32:46;96308.84;;;16.36;100.00
23229;BME280;11783;50.350;6.576;2022-10-16T13:35:28;96311.28;;;16.38;100.00
23229;BME280;11783;50.350;6.576;2022-10-16T13:38:25;96311.72;;;16.50;100.00
23229;BME280;11783;50.350;6.576;2022-10-16T13:41:03;96296.16;;;16.52;100.00
23229;BME280;11783;50.350;6.576;2022-10-16T13:43:35;96302.31;;;16.57;100.00
23229;BME280;11783;50.350;6.576;2022-10-16T13:46:04;96309.50;;;16.62;100.00
23229;BME280;11783;50.350;6.576;2022-10-16T13:48:31;96310.31;;;16.62;100.00
23229;BME280;11783;50.350;6.576;2022-10-16T13:51:01;96309.72;;;16.76;100.00
23229;BME280;11783;50.350;6.576;2022-10-16T13:53:26;96314.72;;;16.87;100.00
23229;BME280;11783;50.350;6.576;2022-10-16T13:55:52;96315.75;;;16.91;100.00
23229;BME280;11783;50.350;6.576;2022-10-16T13:58:18;96324.09;;;16.90;99.08
23229;BME280;11783;50.350;6.576;2022-10-16T14:01:01;96316.47;;;17.02;100.00
23229;BME280;11783;50.350;6.576;2022-10-16T14:03:28;96310.44;;;16.86;100.00
23229;BME280;11783;50.350;6.576;2022-10-16T14:06:02;96308.03;;;16.85;99.87
23229;BME280;11783;50.350;6.576;2022-10-16T14:08:29;96301.41;;;16.72;100.00
23229;BME280;11783;50.350;6.576;2022-10-16T14:10:57;96298.31;;;16.89;100.00
23229;BME280;11783;50.350;6.576;2022-10-16T14:13:32;96314.72;;;16.87;100.00
23229;BME280;11783;50.350;6.576;2022-10-16T14:16:06;96320.06;;;16.87;100.00
23229;BME280;11783;50.350;6.576;2022-10-16T14:18:32;96319.50;;;16.95;100.00
23229;BME280;11783;50.350;6.576;2022-10-16T14:21:03;96322.97;;;16.96;100.00
23229;BME280;11783;50.350;6.576;2022-10-16T14:23:32;96327.50;;;17.01;100.00
23229;BME280;11783;50.350;6.576;2022-10-16T14:26:26;96321.50;;;16.80;100.00
23229;BME280;11783;50.350;6.576;2022-10-16T14:29:10;96312.13;;;16.77;100.00
23229;BME280;11783;50.350;6.576;2022-10-16T14:31:36;96314.81;;;16.72;100.00
23229;BME280;11783;50.350;6.576;2022-10-16T14:34:02;96307.34;;;16.69;100.00
23229;BME280;11783;50.350;6.576;2022-10-16T14:36:28;96306.31;;;16.60;100.00
23229;BME280;11783;50.350;6.576;2022-10-16T14:39:02;96309.09;;;16.45;100.00